createdAt,value
2018-01-10T00:00:06.740Z,8.40
2018-01-10T00:02:34.770Z,8.36
2018-01-10T00:05:06.098Z,8.39
2018-01-10T00:07:34.119Z,8.29
2018-01-10T00:10:08.660Z,8.30
2018-01-10T00:12:36.675Z,8.33
2018-01-10T00:15:06.528Z,8.40
2018-01-10T00:17:34.698Z,8.40
2018-01-10T00:20:09.321Z,8.40
2018-01-10T00:22:37.955Z,8.40
2018-01-10T00:25:06.707Z,8.40
2018-01-10T00:27:34.757Z,8.39
2018-01-10T00:30:06.200Z,8.40
2018-01-10T00:32:34.232Z,8.38
2018-01-10T00:35:08.632Z,8.38
2018-01-10T00:37:36.693Z,8.37
2018-01-10T00:40:07.842Z,8.27
2018-01-10T00:42:35.871Z,8.32
2018-01-10T00:45:07.416Z,8.38
2018-01-10T00:47:35.448Z,8.32
2018-01-10T00:50:06.620Z,8.37
2018-01-10T00:52:34.664Z,8.37
2018-01-10T00:55:09.283Z,8.38
2018-01-10T00:57:37.357Z,8.39
2018-01-10T01:00:07.212Z,8.37
2018-01-10T01:02:35.236Z,8.38
2018-01-10T01:05:06.314Z,8.31
2018-01-10T01:07:34.279Z,8.33
2018-01-10T01:10:08.749Z,8.32
2018-01-10T01:12:36.768Z,8.34
2018-01-10T01:15:06.984Z,8.37
2018-01-10T01:17:34.985Z,8.44
2018-01-10T01:20:09.970Z,8.48
2018-01-10T01:22:38.260Z,8.49
2018-01-10T01:25:07.184Z,8.56
2018-01-10T01:27:35.230Z,8.50
2018-01-10T01:30:10.022Z,8.54
2018-01-10T01:32:38.040Z,8.54
2018-01-10T01:35:07.776Z,8.53
2018-01-10T01:37:35.800Z,8.52
2018-01-10T01:40:06.731Z,8.34
2018-01-10T01:42:34.752Z,8.35
2018-01-10T01:45:05.964Z,8.46
2018-01-10T01:47:33.972Z,8.46
2018-01-10T01:50:05.045Z,8.49
2018-01-10T01:52:33.052Z,8.52
2018-01-10T01:55:01.052Z,8.49
2018-01-10T01:57:31.965Z,8.51
2018-01-10T01:59:59.971Z,8.53
2018-01-10T02:02:28.204Z,8.55
2018-01-10T02:04:56.210Z,8.58
2018-01-10T02:07:24.260Z,8.52
2018-01-10T02:09:52.285Z,8.51
2018-01-10T02:12:20.317Z,8.52
2018-01-10T02:14:48.364Z,8.56
2018-01-10T02:17:16.390Z,8.56
2018-01-10T02:19:44.418Z,8.60
2018-01-10T02:22:12.431Z,8.63
2018-01-10T02:24:40.464Z,8.45
2018-01-10T02:27:08.466Z,8.51
2018-01-10T02:29:36.498Z,8.54
2018-01-10T02:32:05.044Z,8.59
2018-01-10T02:34:33.064Z,8.61
2018-01-10T02:37:01.080Z,8.54
2018-01-10T02:39:29.068Z,8.58
2018-01-10T02:41:57.105Z,8.67
2018-01-10T02:44:25.101Z,8.64
2018-01-10T02:46:53.126Z,8.64
2018-01-10T02:49:21.131Z,8.57
2018-01-10T02:51:50.116Z,8.54
2018-01-10T02:54:18.112Z,8.49
2018-01-10T02:56:46.132Z,8.48
2018-01-10T02:59:14.141Z,8.48
2018-01-10T03:01:42.441Z,8.51
2018-01-10T03:04:10.468Z,8.50
2018-01-10T03:06:38.477Z,8.49
2018-01-10T03:09:06.604Z,8.45
2018-01-10T03:11:34.608Z,8.61
2018-01-10T03:14:02.864Z,8.67
2018-01-10T03:16:31.165Z,8.66
2018-01-10T03:18:59.189Z,8.67
2018-01-10T03:21:27.185Z,8.68
2018-01-10T03:23:55.409Z,8.68
2018-01-10T03:26:23.400Z,8.61
2018-01-10T03:28:51.416Z,8.60
2018-01-10T03:31:19.407Z,8.41
2018-01-10T03:33:47.434Z,8.55
2018-01-10T03:36:15.414Z,8.54
2018-01-10T03:38:44.129Z,8.57
2018-01-10T03:41:12.126Z,8.49
2018-01-10T03:43:40.151Z,8.52
2018-01-10T03:46:08.371Z,8.43
2018-01-10T03:48:36.601Z,8.52
2018-01-10T03:51:04.737Z,8.43
2018-01-10T03:53:33.115Z,8.41
2018-01-10T03:56:01.113Z,8.36
2018-01-10T03:58:29.138Z,8.28
2018-01-10T04:00:57.140Z,8.30
2018-01-10T04:03:25.184Z,8.24
2018-01-10T04:05:53.390Z,8.45
2018-01-10T04:08:21.412Z,8.45
2018-01-10T04:10:49.429Z,8.46
2018-01-10T04:13:17.430Z,8.49
2018-01-10T04:15:45.437Z,8.50
2018-01-10T04:18:13.438Z,8.52
2018-01-10T04:20:41.459Z,8.44
2018-01-10T04:23:09.660Z,8.50
2018-01-10T04:25:37.692Z,8.39
2018-01-10T04:28:05.739Z,8.38
2018-01-10T04:30:33.776Z,8.42
2018-01-10T04:33:02.598Z,8.40
2018-01-10T04:35:30.739Z,8.41
2018-01-10T04:37:58.740Z,8.46
2018-01-10T04:40:26.785Z,8.33
2018-01-10T04:42:54.780Z,8.22
2018-01-10T04:45:22.820Z,8.30
2018-01-10T04:47:51.092Z,8.35
2018-01-10T04:50:19.104Z,8.40
2018-01-10T04:52:47.121Z,8.46
2018-01-10T04:55:15.130Z,8.38
2018-01-10T04:57:43.157Z,8.30
2018-01-10T05:00:11.152Z,8.34
2018-01-10T05:02:39.170Z,8.41
2018-01-10T05:05:07.168Z,8.51
2018-01-10T05:07:35.214Z,8.52
2018-01-10T05:10:05.904Z,8.37
2018-01-10T05:12:33.932Z,8.49
2018-01-10T05:15:06.360Z,8.43
2018-01-10T05:17:34.737Z,8.49
2018-01-10T05:20:06.694Z,8.50
2018-01-10T05:22:34.719Z,8.38
2018-01-10T05:25:06.522Z,8.37
2018-01-10T05:27:34.679Z,8.44
2018-01-10T05:30:05.741Z,8.42
2018-01-10T05:32:33.768Z,8.43
2018-01-10T05:35:08.261Z,8.44
2018-01-10T05:37:36.615Z,8.42
2018-01-10T05:40:07.668Z,8.40
2018-01-10T05:42:35.797Z,8.49
2018-01-10T05:45:07.253Z,8.36
2018-01-10T05:47:35.545Z,8.40
2018-01-10T05:50:07.534Z,8.52
2018-01-10T05:52:35.586Z,8.50
2018-01-10T05:55:06.703Z,8.55
2018-01-10T05:57:34.899Z,8.59
2018-01-10T06:00:06.144Z,8.54
2018-01-10T06:02:34.215Z,8.46
2018-01-10T06:05:08.928Z,8.45
2018-01-10T06:07:36.959Z,8.47
2018-01-10T06:10:07.943Z,8.46
2018-01-10T06:12:35.940Z,8.38
2018-01-10T06:15:06.433Z,8.43
2018-01-10T06:17:34.674Z,8.45
2018-01-10T06:20:09.549Z,8.35
2018-01-10T06:22:37.748Z,8.36
2018-01-10T06:25:06.405Z,8.37
2018-01-10T06:27:34.416Z,8.33
2018-01-10T06:30:09.060Z,8.24
2018-01-10T06:32:37.283Z,8.36
2018-01-10T06:35:06.160Z,8.34
2018-01-10T06:37:34.176Z,8.34
2018-01-10T06:40:08.913Z,8.36
2018-01-10T06:42:36.921Z,8.31
2018-01-10T06:45:06.432Z,8.21
2018-01-10T06:47:34.685Z,8.23
2018-01-10T06:50:05.795Z,8.19
2018-01-10T06:52:33.812Z,8.28
2018-01-10T06:55:08.402Z,8.26
2018-01-10T06:57:36.419Z,8.20
2018-01-10T07:00:06.178Z,8.15
2018-01-10T07:02:34.488Z,8.22
2018-01-10T07:05:07.883Z,8.08
2018-01-10T07:07:35.910Z,8.07
2018-01-10T07:10:07.789Z,8.14
2018-01-10T07:12:35.814Z,8.14
2018-01-10T07:15:07.660Z,8.16
2018-01-10T07:17:36.179Z,8.11
2018-01-10T07:20:07.351Z,8.22
2018-01-10T07:22:35.352Z,8.22
2018-01-10T07:25:06.013Z,8.21
2018-01-10T07:27:34.569Z,8.14
2018-01-10T07:30:06.181Z,8.18
2018-01-10T07:32:34.251Z,8.17
2018-01-10T07:35:09.001Z,8.23
2018-01-10T07:37:37.945Z,8.27
2018-01-10T07:40:06.270Z,8.23
2018-01-10T07:42:34.265Z,8.25
2018-01-10T07:45:05.448Z,8.17
2018-01-10T07:47:33.469Z,8.23
2018-01-10T07:50:04.766Z,8.29
2018-01-10T07:52:32.784Z,8.32
2018-01-10T07:55:05.523Z,8.20
2018-01-10T07:57:33.522Z,8.29
2018-01-10T08:00:04.915Z,8.31
2018-01-10T08:02:32.964Z,8.23
2018-01-10T08:05:05.740Z,8.28
2018-01-10T08:07:33.724Z,8.32
2018-01-10T08:10:04.900Z,8.29
2018-01-10T08:12:33.089Z,8.45
2018-01-10T08:17:35.830Z,8.48
2018-01-10T08:20:06.074Z,8.58
2018-01-10T08:22:34.112Z,8.61
2018-01-10T08:25:09.206Z,8.59
2018-01-10T08:27:37.199Z,8.54
2018-01-10T08:30:06.292Z,8.64
2018-01-10T08:32:34.344Z,8.60
2018-01-10T08:35:08.997Z,8.54
2018-01-10T08:37:37.213Z,8.61
2018-01-10T08:40:07.034Z,8.66
2018-01-10T08:42:35.024Z,8.82
2018-01-10T08:45:06.120Z,8.87
2018-01-10T08:47:34.100Z,8.89
2018-01-10T08:50:08.775Z,8.94
2018-01-10T08:52:37.037Z,9.04
2018-01-10T08:55:06.389Z,9.21
2018-01-10T08:57:34.406Z,9.26
2018-01-10T09:00:09.163Z,9.43
2018-01-10T09:02:37.335Z,9.37
2018-01-10T09:05:07.294Z,9.35
2018-01-10T09:07:35.304Z,9.31
2018-01-10T09:10:03.363Z,9.62
2018-01-10T09:12:31.956Z,10.12
2018-01-10T09:15:00.259Z,10.28
2018-01-10T09:17:28.245Z,10.21
2018-01-10T09:19:56.238Z,9.65
2018-01-10T09:22:24.261Z,9.82
2018-01-10T09:24:54.436Z,10.43
2018-01-10T09:27:22.469Z,10.48
2018-01-10T09:29:55.424Z,11.29
2018-01-10T09:32:23.468Z,10.75
2018-01-10T09:34:55.092Z,10.85
2018-01-10T09:37:23.092Z,12.23
2018-01-10T09:39:54.600Z,12.02
2018-01-10T09:42:22.617Z,11.75
2018-01-10T09:44:53.705Z,11.78
2018-01-10T09:47:21.730Z,10.63
2018-01-10T09:49:56.079Z,10.86
2018-01-10T09:52:24.398Z,10.82
2018-01-10T09:54:55.337Z,10.47
2018-01-10T09:57:23.445Z,10.69
2018-01-10T09:59:55.010Z,10.14
2018-01-10T10:02:23.183Z,10.16
2018-01-10T10:04:53.683Z,9.79
2018-01-10T10:07:21.727Z,9.81
2018-01-10T10:09:55.211Z,10.34
2018-01-10T10:12:23.278Z,10.38
2018-01-10T10:14:54.926Z,11.49
2018-01-10T10:17:22.944Z,12.08
2018-01-10T10:19:53.725Z,13.25
2018-01-10T10:22:21.754Z,13.81
2018-01-10T10:24:56.128Z,13.56
2018-01-10T10:27:24.282Z,14.05
2018-01-10T10:29:54.344Z,13.67
2018-01-10T10:32:22.508Z,12.79
2018-01-10T10:34:54.565Z,11.93
2018-01-10T10:37:22.561Z,12.10
2018-01-10T10:39:54.092Z,11.74
2018-01-10T10:42:22.093Z,11.99
2018-01-10T10:44:53.794Z,12.12
2018-01-10T10:47:21.848Z,11.77
2018-01-10T10:49:53.086Z,12.21
2018-01-10T10:52:21.116Z,12.38
2018-01-10T10:57:22.066Z,12.78
2018-01-10T10:59:54.032Z,11.44
2018-01-10T11:02:22.047Z,11.98
2018-01-10T11:04:56.820Z,11.88
2018-01-10T11:07:24.820Z,12.10
2018-01-10T11:09:53.968Z,11.72
2018-01-10T11:12:21.991Z,11.09
2018-01-10T11:14:56.867Z,11.41
2018-01-10T11:17:24.885Z,11.33
2018-01-10T11:19:54.112Z,10.61
2018-01-10T11:22:22.321Z,10.52
2018-01-10T11:24:53.724Z,10.25
2018-01-10T11:27:22.028Z,10.40
2018-01-10T11:29:56.670Z,10.16
2018-01-10T11:32:24.879Z,10.08
2018-01-10T11:34:54.141Z,10.49
2018-01-10T11:37:22.146Z,10.22
2018-01-10T11:39:53.720Z,10.31
2018-01-10T11:42:21.732Z,10.00
2018-01-10T11:44:56.245Z,10.35
2018-01-10T11:47:24.264Z,10.42
2018-01-10T11:49:57.046Z,10.36
2018-01-10T11:52:25.082Z,10.36
2018-01-10T11:54:54.193Z,10.23
2018-01-10T11:57:22.185Z,10.03
2018-01-10T11:59:56.802Z,10.21
2018-01-10T12:02:24.811Z,10.32
2018-01-10T12:04:54.629Z,10.13
2018-01-10T12:07:22.910Z,9.98
2018-01-10T12:09:54.041Z,10.27
2018-01-10T12:12:22.085Z,10.22
2018-01-10T12:14:53.146Z,10.23
2018-01-10T12:17:21.436Z,10.43
2018-01-10T12:19:56.540Z,10.43
2018-01-10T12:22:24.549Z,10.42
2018-01-10T12:24:54.052Z,10.58
2018-01-10T12:27:22.077Z,10.59
2018-01-10T12:29:53.180Z,10.83
2018-01-10T12:32:21.237Z,11.03
2018-01-10T12:34:53.397Z,11.39
2018-01-10T12:37:21.445Z,11.46
2018-01-10T12:39:55.920Z,11.02
2018-01-10T12:42:23.951Z,11.36
2018-01-10T12:44:55.701Z,11.04
2018-01-10T12:47:23.995Z,11.23
2018-01-10T12:49:54.143Z,11.18
2018-01-10T12:52:22.369Z,11.15
2018-01-10T12:54:53.629Z,10.88
2018-01-10T12:57:21.860Z,10.97
2018-01-10T12:59:53.056Z,11.20
2018-01-10T13:02:21.085Z,11.14
2018-01-10T13:04:52.434Z,11.19
2018-01-10T13:07:20.425Z,11.64
2018-01-10T13:09:53.390Z,12.46
2018-01-10T13:12:21.405Z,13.61
2018-01-10T13:14:55.748Z,14.40
2018-01-10T13:17:24.313Z,15.02
2018-01-10T13:19:55.686Z,14.48
2018-01-10T13:22:23.717Z,13.84
2018-01-10T13:24:54.950Z,13.78
2018-01-10T13:27:22.973Z,14.23
2018-01-10T13:29:57.060Z,13.00
2018-01-10T13:32:25.399Z,12.59
2018-01-10T13:34:54.525Z,12.51
2018-01-10T13:37:22.672Z,12.51
2018-01-10T13:39:56.466Z,13.46
2018-01-10T13:42:24.440Z,12.63
2018-01-10T13:44:53.983Z,13.05
2018-01-10T13:47:21.986Z,11.82
2018-01-10T13:49:56.681Z,12.37
2018-01-10T13:52:24.756Z,12.49
2018-01-10T13:54:55.761Z,12.54
2018-01-10T13:57:24.056Z,12.01
2018-01-10T13:59:53.808Z,11.88
2018-01-10T14:02:21.964Z,11.61
2018-01-10T14:04:54.837Z,11.83
2018-01-10T14:07:22.877Z,11.66
2018-01-10T14:09:53.764Z,11.63
2018-01-10T14:12:22.192Z,11.32
2018-01-10T14:14:53.156Z,11.06
2018-01-10T14:17:21.209Z,11.14
2018-01-10T14:19:52.489Z,11.17
2018-01-10T14:22:20.509Z,11.12
2018-01-10T14:24:53.539Z,11.22
2018-01-10T14:27:21.526Z,11.04
2018-01-10T14:29:52.546Z,11.01
2018-01-10T14:32:20.892Z,10.97
2018-01-10T14:34:52.185Z,11.24
2018-01-10T14:37:20.211Z,11.09
2018-01-10T14:39:48.214Z,11.33
2018-01-10T14:42:19.623Z,11.42
2018-01-10T14:44:47.629Z,11.20
2018-01-10T14:47:15.630Z,11.47
2018-01-10T14:49:43.815Z,11.50
2018-01-10T14:52:11.790Z,11.49
2018-01-10T14:54:40.324Z,11.52
2018-01-10T14:57:08.376Z,11.25
2018-01-10T14:59:36.400Z,11.38
2018-01-10T15:02:04.428Z,10.99
2018-01-10T15:04:32.656Z,10.95
2018-01-10T15:07:00.686Z,11.16
2018-01-10T15:09:28.721Z,11.17
2018-01-10T15:11:57.096Z,10.91
2018-01-10T15:14:25.468Z,10.74
2018-01-10T15:16:53.480Z,10.55
2018-01-10T15:19:21.492Z,10.58
2018-01-10T15:21:49.513Z,10.52
2018-01-10T15:24:17.541Z,10.49
2018-01-10T15:26:45.540Z,10.58
2018-01-10T15:29:13.566Z,10.37
2018-01-10T15:31:41.600Z,10.34
2018-01-10T15:34:09.636Z,10.25
2018-01-10T15:36:38.434Z,10.19
2018-01-10T15:39:07.046Z,10.18
2018-01-10T15:41:35.084Z,10.20
2018-01-10T15:44:03.106Z,9.99
2018-01-10T15:46:31.121Z,9.91
2018-01-10T15:48:59.981Z,9.87
2018-01-10T15:51:28.370Z,9.97
2018-01-10T15:53:56.651Z,9.91
2018-01-10T15:56:24.691Z,9.85
2018-01-10T15:58:52.691Z,9.88
2018-01-10T16:01:20.720Z,9.79
2018-01-10T16:03:48.964Z,9.74
2018-01-10T16:06:17.233Z,9.78
2018-01-10T16:08:45.221Z,9.81
2018-01-10T16:11:13.360Z,9.81
2018-01-10T16:13:41.410Z,9.85
2018-01-10T16:16:13.213Z,9.86
2018-01-10T16:18:41.247Z,9.89
2018-01-10T16:21:09.245Z,9.81
2018-01-10T16:23:37.291Z,9.78
2018-01-10T16:26:05.309Z,9.77
2018-01-10T16:28:33.312Z,9.86
2018-01-10T16:31:01.319Z,9.81
2018-01-10T16:33:29.356Z,9.84
2018-01-10T16:35:57.366Z,9.74
2018-01-10T16:38:25.713Z,9.79
2018-01-10T16:40:53.741Z,9.77
2018-01-10T16:43:21.851Z,9.63
2018-01-10T16:45:49.865Z,9.66
2018-01-10T16:48:17.914Z,9.70
2018-01-10T16:50:45.913Z,9.68
2018-01-10T16:53:14.458Z,9.62
2018-01-10T16:55:42.508Z,9.69
2018-01-10T16:58:10.946Z,9.72
2018-01-10T17:00:38.951Z,9.75
2018-01-10T17:03:06.976Z,9.58
2018-01-10T17:05:35.649Z,9.69
2018-01-10T17:08:03.802Z,9.75
2018-01-10T17:10:31.868Z,9.76
2018-01-10T17:12:59.877Z,9.78
2018-01-10T17:15:27.880Z,9.80
2018-01-10T17:17:55.975Z,9.81
2018-01-10T17:20:23.980Z,9.83
2018-01-10T17:22:52.258Z,9.82
2018-01-10T17:25:20.264Z,9.77
2018-01-10T17:27:48.294Z,9.81
2018-01-10T17:30:16.303Z,9.75
2018-01-10T17:32:44.376Z,9.68
2018-01-10T17:35:12.381Z,9.67
2018-01-10T17:37:40.399Z,9.62
2018-01-10T17:40:08.407Z,9.45
2018-01-10T17:42:36.452Z,9.45
2018-01-10T17:45:04.540Z,9.43
2018-01-10T17:47:32.551Z,9.38
2018-01-10T17:50:00.577Z,9.25
2018-01-10T17:52:28.577Z,9.35
2018-01-10T17:54:56.604Z,9.41
2018-01-10T17:57:24.964Z,9.38
2018-01-10T17:59:54.868Z,9.37
2018-01-10T18:02:22.860Z,9.42
2018-01-10T18:04:54.000Z,9.38
2018-01-10T18:07:22.003Z,9.34
2018-01-10T18:09:55.048Z,9.25
2018-01-10T18:12:23.055Z,9.26
2018-01-10T18:14:54.702Z,9.24
2018-01-10T18:17:22.712Z,9.36
2018-01-10T18:19:54.065Z,9.29
2018-01-10T18:22:22.320Z,9.29
2018-01-10T18:24:55.103Z,9.20
2018-01-10T18:27:23.104Z,9.22
2018-01-10T18:29:53.825Z,9.23
2018-01-10T18:32:21.851Z,9.28
2018-01-10T18:34:57.004Z,9.34
2018-01-10T18:37:25.281Z,9.33
2018-01-10T18:39:54.032Z,9.24
2018-01-10T18:42:22.141Z,9.34
2018-01-10T18:44:56.962Z,9.33
2018-01-10T18:47:25.379Z,9.37
2018-01-10T18:49:54.640Z,9.36
2018-01-10T18:52:22.645Z,9.28
2018-01-10T18:54:56.381Z,9.29
2018-01-10T18:57:24.901Z,9.29
2018-01-10T18:59:54.109Z,9.27
2018-01-10T19:02:22.128Z,9.31
2018-01-10T19:04:56.944Z,9.35
2018-01-10T19:07:24.970Z,9.12
2018-01-10T19:09:54.937Z,9.19
2018-01-10T19:12:22.988Z,9.15
2018-01-10T19:14:54.844Z,9.07
2018-01-10T19:17:22.850Z,9.21
2018-01-10T19:19:53.858Z,9.07
2018-01-10T19:22:21.856Z,9.15
2018-01-10T19:24:53.204Z,9.03
2018-01-10T19:27:21.216Z,9.04
2018-01-10T19:29:52.854Z,9.02
2018-01-10T19:32:20.827Z,9.21
2018-01-10T19:37:21.499Z,9.22
2018-01-10T19:39:52.617Z,9.11
2018-01-10T19:42:20.802Z,9.07
2018-01-10T19:47:21.932Z,9.14
2018-01-10T19:49:53.781Z,9.07
2018-01-10T19:52:21.812Z,8.93
2018-01-10T19:54:56.414Z,9.00
2018-01-10T19:57:24.438Z,8.95
2018-01-10T19:59:54.227Z,8.97
2018-01-10T20:02:22.220Z,9.01
2018-01-10T20:04:53.221Z,8.97
2018-01-10T20:07:21.283Z,8.88
2018-01-10T20:09:52.592Z,8.97
2018-01-10T20:12:20.629Z,8.94
2018-01-10T20:14:50.064Z,8.93
2018-01-10T20:17:20.157Z,8.98
2018-01-10T20:19:48.174Z,8.92
2018-01-10T20:22:19.186Z,9.01
2018-01-10T20:24:47.216Z,9.06
2018-01-10T20:27:18.121Z,8.91
2018-01-10T20:29:46.157Z,8.84
2018-01-10T20:32:14.161Z,8.84
2018-01-10T20:34:42.206Z,8.78
2018-01-10T20:37:10.430Z,8.75
2018-01-10T20:39:38.450Z,8.80
2018-01-10T20:42:06.488Z,8.75
2018-01-10T20:44:34.485Z,8.67
2018-01-10T20:47:02.528Z,8.66
2018-01-10T20:49:30.589Z,8.84
2018-01-10T20:51:58.616Z,8.66
2018-01-10T20:54:26.640Z,8.89
2018-01-10T20:56:54.683Z,8.82
2018-01-10T20:59:22.698Z,8.76
2018-01-10T21:01:50.756Z,8.98
2018-01-10T21:04:18.776Z,8.86
2018-01-10T21:06:47.404Z,8.90
2018-01-10T21:09:15.431Z,8.95
2018-01-10T21:11:43.460Z,8.93
2018-01-10T21:14:11.686Z,8.86
2018-01-10T21:16:39.687Z,8.90
2018-01-10T21:19:07.714Z,8.86
2018-01-10T21:21:35.729Z,8.83
2018-01-10T21:24:03.752Z,8.84
2018-01-10T21:26:31.802Z,8.84
2018-01-10T21:28:59.820Z,8.81
2018-01-10T21:31:27.835Z,8.77
2018-01-10T21:33:55.869Z,8.68
2018-01-10T21:36:24.401Z,8.71
2018-01-10T21:38:52.743Z,8.70
2018-01-10T21:41:20.750Z,8.53
2018-01-10T21:43:49.236Z,8.62
2018-01-10T21:46:17.233Z,8.61
2018-01-10T21:48:45.250Z,8.50
2018-01-10T21:51:13.341Z,8.65
2018-01-10T21:53:41.349Z,8.73
2018-01-10T21:56:09.727Z,8.78
2018-01-10T21:58:37.740Z,8.75
2018-01-10T22:01:05.760Z,8.78
2018-01-10T22:03:33.805Z,8.59
2018-01-10T22:06:01.792Z,8.31
2018-01-10T22:08:29.804Z,8.36
2018-01-10T22:10:57.846Z,8.33
2018-01-10T22:13:26.120Z,8.29
2018-01-10T22:15:54.178Z,8.40
2018-01-10T22:18:22.209Z,8.37
2018-01-10T22:20:50.254Z,8.51
2018-01-10T22:23:18.314Z,8.52
2018-01-10T22:25:46.655Z,8.36
2018-01-10T22:28:15.062Z,8.50
2018-01-10T22:30:43.077Z,8.51
2018-01-10T22:33:11.128Z,8.53
2018-01-10T22:35:39.467Z,8.43
2018-01-10T22:38:07.490Z,8.35
2018-01-10T22:40:35.522Z,8.35
2018-01-10T22:43:03.538Z,8.24
2018-01-10T22:45:31.555Z,8.30
2018-01-10T22:47:59.566Z,8.40
2018-01-10T22:50:27.585Z,8.49
2018-01-10T22:52:55.588Z,8.49
2018-01-10T22:55:23.613Z,8.49
2018-01-10T22:57:51.637Z,8.54
2018-01-10T23:00:26.617Z,8.60
2018-01-10T23:02:54.621Z,8.50
2018-01-10T23:05:22.633Z,8.45
2018-01-10T23:07:50.636Z,8.53
2018-01-10T23:10:19.013Z,8.50
2018-01-10T23:12:47.025Z,8.60
2018-01-10T23:15:15.063Z,8.61
2018-01-10T23:17:43.353Z,8.61
2018-01-10T23:20:11.375Z,8.62
2018-01-10T23:22:39.373Z,8.64
2018-01-10T23:25:07.397Z,8.66
2018-01-10T23:27:35.411Z,8.66
2018-01-10T23:30:03.458Z,8.66
2018-01-10T23:32:31.476Z,8.69
2018-01-10T23:34:59.468Z,8.66
2018-01-10T23:37:27.484Z,8.61
2018-01-10T23:39:55.492Z,8.55
2018-01-10T23:42:23.517Z,8.66
2018-01-10T23:44:54.441Z,8.57
2018-01-10T23:47:22.473Z,8.51
2018-01-10T23:49:53.707Z,8.48
2018-01-10T23:52:21.704Z,8.57
2018-01-10T23:54:53.606Z,8.54
2018-01-10T23:57:21.600Z,8.62
2018-01-10T23:59:56.410Z,8.57
